Terminal Aerodrome Forecast
Issued by NWS

Home | Current Version | Previous Version | Text Only | Print | Product List | Glossary On
Versions: 1 2 3 4 5 6 7 8 9 10 11 12 13 14 15 16 17 18
000
FTUS43 KDVN 201100
TAFBRL
TAF
KBRL 201130Z 2012/2112 15004KT P6SM OVC020
      TEMPO 2012/2014 5SM BR OVC012
     FM201400 16005KT 5SM -FZDZSN BR OVC008
     FM201600 16006KT 6SM BR OVC008
     FM201900 15006KT P6SM OVC015
     FM210200 16005KT 6SM BR OVC008=

USA.gov is the U.S. government's official web portal to all federal, state and local government web resources and services.